createdAt,value
2023-01-31T00:00:24.804Z,2.97
2023-01-31T00:15:23.934Z,2.55
2023-01-31T00:30:24.111Z,2.57
2023-01-31T00:45:24.099Z,2.77
2023-01-31T01:00:33.119Z,2.55
2023-01-31T01:15:23.226Z,2.42
2023-01-31T01:30:23.522Z,2.28
2023-01-31T01:45:23.617Z,2.33
2023-01-31T02:00:23.421Z,1.97
2023-01-31T02:15:23.421Z,1.73
2023-01-31T02:30:24.059Z,1.73
2023-01-31T02:45:23.791Z,1.50
2023-01-31T03:00:23.560Z,1.15
2023-01-31T03:15:24.090Z,1.08
2023-01-31T03:30:23.736Z,1.00
2023-01-31T03:45:23.477Z,1.17
2023-01-31T04:00:23.748Z,1.10
2023-01-31T04:15:23.866Z,1.40
2023-01-31T04:30:23.919Z,1.40
2023-01-31T04:45:23.765Z,1.77
2023-01-31T05:00:24.001Z,1.42
2023-01-31T05:15:24.041Z,1.27
2023-01-31T05:30:24.126Z,1.43
2023-01-31T05:45:23.871Z,1.35
2023-01-31T06:00:33.413Z,1.57
2023-01-31T06:15:23.489Z,1.50
2023-01-31T06:30:23.069Z,1.52
2023-01-31T06:45:23.287Z,1.80
2023-01-31T07:00:23.115Z,1.50
2023-01-31T07:15:23.227Z,1.38
2023-01-31T07:30:23.398Z,1.35
2023-01-31T07:45:28.572Z,1.40
2023-01-31T07:45:33.173Z,1.40
2023-01-31T08:00:23.416Z,1.10
2023-01-31T08:15:23.993Z,1.27
2023-01-31T08:30:23.752Z,2.00
2023-01-31T08:45:23.963Z,1.85
2023-01-31T09:00:24.064Z,2.30
2023-01-31T09:15:24.318Z,2.60
2023-01-31T09:30:24.281Z,3.05
2023-01-31T09:45:24.257Z,3.53
2023-01-31T10:00:23.640Z,3.65
2023-01-31T10:15:24.259Z,3.90
2023-01-31T10:30:24.716Z,4.25
2023-01-31T10:45:23.939Z,4.32
2023-01-31T11:00:33.861Z,4.30
2023-01-31T11:15:23.923Z,4.60
2023-01-31T11:30:24.233Z,4.65
2023-01-31T11:45:24.000Z,4.80
2023-01-31T12:00:24.325Z,4.97
2023-01-31T12:15:24.169Z,5.07
2023-01-31T12:30:24.209Z,4.85
2023-01-31T12:45:24.053Z,4.78
2023-01-31T13:00:24.239Z,4.80
2023-01-31T13:15:24.253Z,5.00
2023-01-31T13:30:24.370Z,4.90
2023-01-31T13:45:33.361Z,4.90
2023-01-31T13:58:00.650Z,6.00
2023-01-31T14:00:33.092Z,6.00
2023-01-31T14:15:29.704Z,4.62
2023-01-31T14:26:52.322Z,6.00
2023-01-31T14:41:42.302Z,4.38
2023-01-31T14:56:42.018Z,4.50
2023-01-31T15:11:43.222Z,4.38
2023-01-31T15:15:23.379Z,4.80
2023-01-31T15:30:23.398Z,4.50
2023-01-31T15:45:24.105Z,4.43
2023-01-31T16:00:23.694Z,4.35
2023-01-31T16:15:23.723Z,4.30
2023-01-31T16:30:23.551Z,4.30
2023-01-31T16:45:23.846Z,4.30
2023-01-31T17:00:23.851Z,4.30
2023-01-31T17:15:23.882Z,4.32
2023-01-31T17:30:24.111Z,4.43
2023-01-31T17:45:24.155Z,4.60
2023-01-31T18:00:23.997Z,4.65
2023-01-31T18:15:23.853Z,4.65
2023-01-31T18:30:24.181Z,4.20
2023-01-31T18:45:24.534Z,4.68
2023-01-31T19:00:24.152Z,4.77
2023-01-31T19:15:24.236Z,4.77
2023-01-31T19:30:24.291Z,4.82
2023-01-31T19:45:24.698Z,4.77
2023-01-31T20:00:24.057Z,4.72
2023-01-31T20:15:23.321Z,4.57
2023-01-31T20:30:23.900Z,4.53
2023-01-31T20:45:23.472Z,4.28
2023-01-31T21:00:23.923Z,4.43
2023-01-31T21:15:23.849Z,4.50
2023-01-31T21:30:23.879Z,4.43
2023-01-31T21:45:23.885Z,4.57
2023-01-31T22:00:24.116Z,4.32
2023-01-31T22:15:23.963Z,4.43
2023-01-31T22:30:23.820Z,4.35
2023-01-31T22:45:23.880Z,4.50
2023-01-31T23:00:38.541Z,6.00
2023-01-31T23:15:23.670Z,4.32
2023-01-31T23:30:23.777Z,4.47
2023-01-31T23:45:23.380Z,4.25
